Index of /pool/main/k/

NameLast ModifiedSizeType
Parent Directory/ -  Directory
k3b/2017-Nov-23 14:15:58-  Directory
k3d/2017-Nov-23 14:15:58-  Directory
k4dirstat/2017-Nov-23 14:15:58-  Directory
kaa-base/2016-Dec-09 11:28:27-  Directory
kaa-imlib2/2016-Dec-09 11:28:27-  Directory
kaa-metadata/2016-Dec-09 11:28:27-  Directory
kabikaboo/2016-Dec-09 11:28:27-  Directory
kaccessible/2017-Nov-23 14:15:59-  Directory
kaccounts-integration/2017-Nov-23 14:16:00-  Directory
kaccounts-providers/2017-Nov-23 14:16:00-  Directory
kactivities/2017-Nov-23 14:16:02-  Directory
kactivities-kf5/2017-Nov-23 14:16:01-  Directory
kactivities-stats/2017-Nov-23 14:16:01-  Directory
kactivitymanagerd/2017-Nov-23 14:16:02-  Directory
kadu/2017-Nov-23 14:16:03-  Directory
kadu-mime-tex/2016-Dec-09 11:28:28-  Directory
kaffeine/2017-Nov-23 14:16:03-  Directory
kafkacat/2018-Apr-14 02:09:20-  Directory
kajongg/2017-Nov-23 14:16:04-  Directory
kakasi/2017-Nov-23 14:16:05-  Directory
kakoune/2017-Nov-23 14:16:05-  Directory
kalarmcal/2017-Nov-23 14:16:05-  Directory
kalgebra/2017-Nov-23 14:16:05-  Directory
kali/2017-Nov-23 14:16:05-  Directory
kalign/2017-Nov-23 14:16:06-  Directory
kalternatives/2016-Dec-09 11:28:32-  Directory
kalzium/2017-Nov-23 14:16:06-  Directory
kamailio/2017-Nov-23 14:16:10-  Directory
kamera/2017-Nov-23 14:16:11-  Directory
kamerka/2017-Nov-23 14:16:11-  Directory
kamoso/2017-Nov-23 14:16:12-  Directory
kanagram/2017-Nov-23 14:16:12-  Directory
kanatest/2017-Nov-23 14:16:12-  Directory
kanif/2016-Dec-09 11:28:43-  Directory
kanjidic/2017-Nov-23 14:16:13-  Directory
kanjipad/2017-Nov-23 14:16:14-  Directory
kanla/2016-Dec-09 11:28:43-  Directory
kannel/2017-Nov-23 14:16:14-  Directory
kannel-sqlbox/2017-Nov-23 14:16:14-  Directory
kanyremote/2017-Nov-23 14:16:15-  Directory
kapidox/2017-Nov-23 14:16:15-  Directory
kapman/2017-Nov-23 14:16:15-  Directory
kapptemplate/2017-Nov-23 14:16:16-  Directory
kaptain/2016-Dec-09 11:28:45-  Directory
karchive/2017-Nov-23 14:16:16-  Directory
karlyriceditor/2017-Nov-23 14:16:17-  Directory
kasumi/2017-Nov-23 14:16:17-  Directory
katarakt/2017-Nov-23 14:16:17-  Directory
kate/2017-Nov-23 14:16:18-  Directory
kate4/2017-Nov-23 14:16:18-  Directory
katomic/2017-Nov-23 14:16:18-  Directory
katoob/2016-Dec-09 11:28:49-  Directory
kauth/2017-Nov-23 14:16:18-  Directory
kawari8/2017-Nov-23 14:16:18-  Directory
kaya/2016-Dec-09 11:28:51-  Directory
kazam/2017-Nov-23 14:16:18-  Directory
kazoo/2017-Nov-23 14:16:18-  Directory
kbackup/2016-Dec-09 11:28:51-  Directory
kball/2017-Nov-23 14:16:19-  Directory
kbd/2017-Nov-23 14:16:19-  Directory
kbdd/2017-Nov-23 14:16:19-  Directory
kbibtex/2017-Nov-23 14:16:20-  Directory
kblackbox/2017-Nov-23 14:16:20-  Directory
kblocks/2017-Nov-23 14:16:20-  Directory
kblog/2017-Nov-23 14:16:20-  Directory
kbookmarks/2017-Nov-23 14:16:21-  Directory
kboot-utils/2016-Dec-09 11:28:52-  Directory
kbounce/2017-Nov-23 14:16:21-  Directory
kbreakout/2017-Nov-23 14:16:21-  Directory
kbruch/2017-Nov-23 14:16:21-  Directory
kbtin/2017-Nov-23 14:16:21-  Directory
kbuild/2018-Apr-21 02:08:43-  Directory
kcachegrind/2017-Nov-23 14:16:22-  Directory
kcalc/2017-Nov-23 14:16:22-  Directory
kcalcore/2017-Nov-23 14:16:22-  Directory
kcalutils/2017-Nov-23 14:16:22-  Directory
kcc/2017-Nov-23 14:16:22-  Directory
kcharselect/2017-Nov-23 14:16:22-  Directory
kcheckers/2017-Nov-23 14:16:22-  Directory
kchmviewer/2017-Nov-23 14:16:22-  Directory
kcm-fcitx/2017-Nov-23 14:16:22-  Directory
kcmutils/2017-Nov-23 14:16:22-  Directory
kcodecs/2017-Nov-23 14:16:22-  Directory
kcollectd/2017-Nov-23 14:16:23-  Directory
kcolorchooser/2017-Nov-23 14:16:23-  Directory
kcometen4/2016-Dec-09 11:28:55-  Directory
kcompletion/2017-Nov-23 14:16:23-  Directory
kconfig/2017-Nov-23 14:16:23-  Directory
kconfigwidgets/2017-Nov-23 14:16:23-  Directory
kcontacts/2017-Nov-23 14:16:23-  Directory
kcoreaddons/2017-Nov-23 14:16:23-  Directory
kcov/2016-Dec-09 11:28:55-  Directory
kcptun/2018-Jan-07 02:16:26-  Directory
kcrash/2017-Nov-23 14:16:24-  Directory
kcron/2017-Nov-23 14:16:24-  Directory
kdbg/2017-Nov-23 14:16:24-  Directory
kdbusaddons/2017-Nov-23 14:16:24-  Directory
kdc2tiff/2016-Dec-09 11:28:56-  Directory
kde-base-artwork/2016-Dec-09 11:28:56-  Directory
kde-baseapps/2017-Nov-23 14:16:25-  Directory
kde-cli-tools/2017-Nov-23 14:16:25-  Directory
kde-config-systemd/2017-Nov-23 14:16:25-  Directory
kde-dev-scripts/2017-Nov-23 14:16:25-  Directory
kde-dev-utils/2017-Nov-23 14:16:25-  Directory
kde-gtk-config/2017-Dec-10 02:23:54-  Directory
kde-l10n/2017-Nov-23 14:16:46-  Directory
kde-runtime/2017-Nov-23 14:16:47-  Directory
kde-spectacle/2017-Nov-23 14:16:48-  Directory
kde-style-polyester/2016-Dec-09 11:29:27-  Directory
kde-style-qtcurve/2016-Dec-09 11:29:28-  Directory
kde-wallpapers/2017-Nov-23 14:16:48-  Directory
kde-workspace/2016-Dec-09 11:29:50-  Directory
kde4libs/2017-Nov-23 14:16:56-  Directory
kdeadmin/2016-Dec-09 11:30:08-  Directory
kdeartwork/2017-Nov-23 14:17:02-  Directory
kdebugsettings/2017-Nov-23 14:17:02-  Directory
kdeclarative/2017-Nov-23 14:17:02-  Directory
kdeconnect/2017-Nov-23 14:17:02-  Directory
kdecoration/2017-Nov-23 14:17:03-  Directory
kded/2017-Nov-23 14:17:03-  Directory
kdeedu-data/2017-Nov-23 14:17:03-  Directory
kdegames/2016-Dec-09 11:30:25-  Directory
kdegraphics-mobipocket/2017-Nov-23 14:17:03-  Directory
kdegraphics-strigi-analyzer/2016-Dec-09 11:30:25-  Directory
kdegraphics-thumbnailers/2017-Nov-23 14:17:03-  Directory
kdelibs4support/2017-Nov-23 14:17:04-  Directory
kdemultimedia/2016-Dec-09 11:30:27-  Directory
kdenetwork/2016-Dec-09 11:30:32-  Directory
kdenetwork-filesharing/2017-Nov-23 14:17:04-  Directory
kdenetwork-strigi-analyzers/2016-Dec-09 11:30:27-  Directory
kdenlive/2017-Nov-23 14:17:07-  Directory
kdepim/2017-Dec-10 02:23:54-  Directory
kdepim-addons/2017-Nov-23 14:17:07-  Directory
kdepim-runtime/2017-Nov-23 14:17:07-  Directory
kdepim4/2017-Nov-23 14:17:10-  Directory
kdepimlibs/2017-Nov-23 14:17:16-  Directory
kdeplasma-addons/2017-Nov-23 14:17:16-  Directory
kdesdk/2016-Dec-09 11:31:26-  Directory
kdesdk-kioslaves/2017-Nov-23 14:17:17-  Directory
kdesdk-strigi-analyzers/2016-Dec-09 11:31:21-  Directory
kdesdk-thumbnailers/2017-Nov-23 14:17:17-  Directory
kdesignerplugin/2017-Nov-23 14:17:18-  Directory
kdesrc-build/2017-Nov-23 14:17:18-  Directory
kdesu/2017-Nov-23 14:17:18-  Directory
kdesudo/2017-Nov-23 14:17:18-  Directory
kdesvn/2017-Nov-23 14:17:18-  Directory
kdetoys/2016-Dec-09 11:31:29-  Directory
kdevelop/2017-Nov-23 14:17:19-  Directory
kdevelop-pg-qt/2017-Nov-23 14:17:18-  Directory
kdevelop-php/2017-Nov-23 14:17:19-  Directory
kdevelop-php-docs/2016-Dec-09 11:31:29-  Directory
kdevelop-python/2017-Nov-23 14:17:19-  Directory
kdevplatform/2017-Nov-23 14:17:19-  Directory
kdewebdev/2017-Nov-23 14:17:20-  Directory
kdewebkit/2017-Nov-23 14:17:20-  Directory
kdf/2017-Nov-23 14:17:20-  Directory
kdgcommons-java/2017-Nov-23 14:17:20-  Directory
kdiagram/2017-Nov-23 14:17:20-  Directory
kdiamond/2017-Nov-23 14:17:20-  Directory
kdiff3/2017-Nov-23 14:17:21-  Directory
kdm-gdmcompat/2016-Dec-09 11:31:46-  Directory
kdnssd/2016-Dec-09 11:31:46-  Directory
kdnssd-kf5/2017-Nov-23 14:17:21-  Directory
kdocker/2017-Nov-23 14:17:21-  Directory
kdoctools/2017-Nov-23 14:17:21-  Directory
kdrill/2017-Nov-23 14:17:21-  Directory
kedpm/2017-Dec-10 02:23:54-  Directory
keepalived/2017-Nov-23 14:17:22-  Directory
keepass2/2017-Nov-23 14:17:22-  Directory
keepassx/2017-Nov-23 14:17:22-  Directory
keepnote/2016-Dec-09 11:31:47-  Directory
kelbt/2017-Nov-23 14:17:22-  Directory
kemoticons/2017-Nov-23 14:17:22-  Directory
kephra/2016-Dec-09 11:31:47-  Directory
kerberos-configs/2017-Nov-23 14:17:22-  Directory
kernel-handbook/2017-Nov-23 14:17:22-  Directory
kernel-package/2018-Feb-03 02:13:25-  Directory
kernel-patch-viewos/2016-Dec-09 11:31:47-  Directory
kernel-wedge/2017-Nov-23 14:17:22-  Directory
kerneloops/2017-Nov-23 14:17:23-  Directory
kerneltop/2017-Nov-23 14:17:23-  Directory
kernsmooth/2017-Nov-23 14:17:23-  Directory
ketchup/2017-Nov-23 14:17:23-  Directory
ketm/2017-Nov-23 14:17:23-  Directory
keurocalc/2017-Nov-23 14:17:23-  Directory
kexec-tools/2017-Nov-23 14:17:23-  Directory
key-mon/2016-Dec-09 11:31:51-  Directory
keybinder/2017-Nov-23 14:17:23-  Directory
keybinder-3.0/2017-Nov-23 14:17:23-  Directory
keyboards-rg/2017-Nov-23 14:17:23-  Directory
keychain/2017-Nov-23 14:17:23-  Directory
keylaunch/2016-Dec-09 11:31:51-  Directory
keymapper/2016-Dec-09 11:31:51-  Directory
keynav/2017-Nov-23 14:17:23-  Directory
keyringer/2017-Dec-10 02:23:54-  Directory
keyrings.alt/2017-Nov-23 14:17:24-  Directory
keystone/2017-Nov-23 14:17:24-  Directory
keysync/2017-Nov-23 14:17:24-  Directory
keytouch-editor/2017-Nov-23 14:17:24-  Directory
keyutils/2017-Nov-23 14:17:24-  Directory
kf5-kdepim-apps-libs/2017-Nov-23 14:17:24-  Directory
kf5-kdepimlibs/2017-Nov-23 14:17:25-  Directory
kf5-messagelib/2017-Nov-23 14:17:25-  Directory
kfilemetadata/2017-Nov-23 14:17:25-  Directory
kfilemetadata-kf5/2017-Nov-23 14:17:25-  Directory
kfloppy/2017-Nov-23 14:17:25-  Directory
kfourinline/2017-Nov-23 14:17:25-  Directory
kfreebsd-10/2017-Nov-23 14:17:26-  Directory
kfreebsd-8/2016-Dec-09 11:31:58-  Directory
kfreebsd-9/2016-Dec-09 11:32:02-  Directory
kfreebsd-defaults/2016-Dec-09 11:32:03-  Directory
kftpgrabber/2016-Dec-09 11:32:03-  Directory
kgamma/2016-Dec-09 11:32:03-  Directory
kgamma5/2017-Nov-23 14:17:28-  Directory
kgb/2017-Nov-23 14:17:28-  Directory
kgb-bot/2017-Nov-23 14:17:28-  Directory
kgeography/2017-Nov-23 14:17:29-  Directory
kget/2017-Nov-23 14:17:29-  Directory
kglobalaccel/2017-Nov-23 14:17:29-  Directory
kgoldrunner/2017-Nov-23 14:17:29-  Directory
kgpg/2017-Nov-23 14:17:30-  Directory
kguiaddons/2017-Nov-23 14:17:30-  Directory
khal/2017-Nov-23 14:17:30-  Directory
khangman/2017-Nov-23 14:17:30-  Directory
khard/2017-Nov-23 14:17:31-  Directory
khelpcenter/2017-Nov-23 14:17:31-  Directory
khmer/2017-Nov-23 14:17:32-  Directory
khmerconverter/2017-Nov-23 14:17:33-  Directory
kholidays/2017-Nov-23 14:17:33-  Directory
khotkeys/2017-Nov-23 14:17:33-  Directory
khronos-api/2018-Jun-08 02:07:05-  Directory
khronos-opencl-clhpp/2017-Nov-23 14:17:34-  Directory
khronos-opencl-headers/2017-Nov-23 14:17:35-  Directory
khronos-opencl-man/2016-Dec-09 11:32:06-  Directory
khronos-opengl-man4/2017-Nov-23 14:17:35-  Directory
khtml/2017-Nov-23 14:17:35-  Directory
ki18n/2017-Nov-23 14:17:35-  Directory
kicad/2017-Nov-23 14:18:11-  Directory
kiconthemes/2017-Nov-23 14:18:11-  Directory
kid/2017-Nov-23 14:18:12-  Directory
kid3/2017-Nov-23 14:18:13-  Directory
kidentitymanagement/2017-Nov-23 14:18:13-  Directory
kidletime/2017-Nov-23 14:18:13-  Directory
kido/2017-Nov-23 14:18:14-  Directory
kig/2017-Nov-23 14:18:14-  Directory
kigo/2017-Nov-23 14:18:14-  Directory
kiki/2016-Dec-09 11:32:33-  Directory
kiki-the-nano-bot/2017-Nov-23 14:18:14-  Directory
kildclient/2018-Mar-11 02:18:27-  Directory
kile/2017-Nov-23 14:18:15-  Directory
killbots/2017-Nov-23 14:18:15-  Directory
killer/2016-Dec-09 11:32:35-  Directory
kimageformats/2017-Nov-23 14:18:15-  Directory
kimap/2017-Nov-23 14:18:15-  Directory
kimwitu/2017-Nov-23 14:18:16-  Directory
kimwitu++/2016-Dec-09 11:32:35-  Directory
kimwitu-doc/2016-Dec-09 11:32:35-  Directory
kindleclip/2017-Nov-23 14:18:16-  Directory
kineticstools/2017-Nov-23 14:18:22-  Directory
kinfocenter/2017-Nov-23 14:18:22-  Directory
king/2017-Nov-23 14:18:22-  Directory
king-probe/2017-Nov-23 14:18:22-  Directory
kingston-update-notifier/2016-Dec-09 11:32:50-  Directory
kinit/2017-Nov-23 14:18:22-  Directory
kino/2017-Nov-23 14:18:22-  Directory
kinput2/2017-Nov-23 14:18:22-  Directory
kio/2017-Nov-23 14:18:23-  Directory
kio-extras/2017-Nov-23 14:18:23-  Directory
kio-ftps/2016-Dec-09 11:32:52-  Directory
kio-gopher/2017-Nov-23 14:18:23-  Directory
kio-mtp/2017-Nov-23 14:18:23-  Directory
kirigami/2017-Nov-23 14:18:23-  Directory
kiriki/2017-Nov-23 14:18:24-  Directory
kismet/2017-Nov-23 14:18:25-  Directory
kissplice/2017-Nov-23 14:18:25-  Directory
kitchen/2017-Nov-23 14:18:25-  Directory
kitemmodels/2017-Nov-23 14:18:25-  Directory
kitemviews/2017-Nov-23 14:18:26-  Directory
kiten/2017-Nov-23 14:18:27-  Directory
kivy/2017-Nov-23 14:18:28-  Directory
kiwi/2017-Nov-23 14:18:28-  Directory
kjobwidgets/2017-Nov-23 14:18:28-  Directory
kjots/2017-Nov-23 14:18:28-  Directory
kjs/2017-Nov-23 14:18:29-  Directory
kjsembed/2017-Nov-23 14:18:29-  Directory
kjumpingcube/2017-Nov-23 14:18:29-  Directory
klatexformula/2017-Nov-23 14:18:30-  Directory
klaus/2017-Nov-23 14:18:30-  Directory
klavaro/2017-Nov-23 14:18:30-  Directory
kldap/2017-Nov-23 14:18:31-  Directory
klein/2017-Nov-23 14:18:31-  Directory
kleopatra/2017-Nov-23 14:18:32-  Directory
klettres/2017-Nov-23 14:18:32-  Directory
klibc/2017-Nov-23 14:18:32-  Directory
klick/2017-Nov-23 14:18:32-  Directory
klickety/2017-Nov-23 14:18:33-  Directory
klines/2017-Nov-23 14:18:33-  Directory
klog/2017-Nov-23 14:18:36-  Directory
klone/2016-Dec-09 11:33:00-  Directory
kluppe/2017-Nov-23 14:18:37-  Directory
klustakwik/2017-Nov-23 14:18:37-  Directory
kmag/2017-Nov-23 14:18:38-  Directory
kmahjongg/2017-Nov-23 14:18:38-  Directory
kmailtransport/2017-Nov-23 14:18:38-  Directory
kmbox/2017-Nov-23 14:18:38-  Directory
kmc/2017-Nov-23 14:18:38-  Directory
kmediaplayer/2017-Nov-23 14:18:38-  Directory
kmenuedit/2017-Nov-23 14:18:38-  Directory
kmer/2017-Nov-23 14:18:39-  Directory
kmess/2016-Dec-09 11:33:02-  Directory
kmetronome/2017-Nov-23 14:18:39-  Directory
kmfl-keyboards-mywin/2016-Dec-09 11:33:02-  Directory
kmflcomp/2017-Nov-23 14:18:39-  Directory
kmidimon/2017-Nov-23 14:18:39-  Directory
kmime/2017-Nov-23 14:18:39-  Directory
kmines/2017-Nov-23 14:18:40-  Directory
kmix/2017-Nov-23 14:18:40-  Directory
kmldonkey/2016-Dec-09 11:33:03-  Directory
kmod/2017-Nov-23 14:18:40-  Directory
kmodpy/2017-Nov-23 14:18:40-  Directory
kmousetool/2017-Nov-23 14:18:40-  Directory
kmouth/2017-Nov-23 14:18:40-  Directory
kmplayer/2017-Nov-23 14:18:40-  Directory
kmplot/2017-Nov-23 14:18:40-  Directory
kmymoney/2017-Nov-23 14:18:42-  Directory
knavalbattle/2017-Nov-23 14:18:43-  Directory
knemo/2016-Dec-09 11:33:12-  Directory
knetwalk/2017-Nov-23 14:18:43-  Directory
knews/2017-Nov-23 14:18:43-  Directory
knewstuff/2017-Nov-23 14:18:43-  Directory
knights/2017-Nov-23 14:18:43-  Directory
knockd/2017-Nov-23 14:18:44-  Directory
knocker/2017-Nov-23 14:18:44-  Directory
knockpy/2017-Nov-23 14:18:44-  Directory
knopflerfish-osgi/2017-Nov-23 14:18:44-  Directory
knot/2018-Mar-07 02:09:52-  Directory
knot-resolver/2018-May-30 02:16:19-  Directory
knotifications/2017-Nov-23 14:18:44-  Directory
knotifyconfig/2017-Nov-23 14:18:45-  Directory
knowl.js/2017-Nov-23 14:18:45-  Directory
knowledgeroot/2016-Dec-09 11:33:16-  Directory
knowthelist/2017-Nov-23 14:18:45-  Directory
knutclient/2017-Nov-23 14:18:45-  Directory
ko.tex/2016-Dec-09 11:33:21-  Directory
ko.tex-extra-hlfont/2016-Dec-09 11:33:16-  Directory
ko.tex-unfonts/2016-Dec-09 11:33:19-  Directory
kobodeluxe/2017-Nov-23 14:18:45-  Directory
kodi/2017-Nov-23 14:18:48-  Directory
kodi-pvr-argustv/2017-Nov-23 14:18:45-  Directory
kodi-pvr-dvbviewer/2017-Nov-23 14:18:45-  Directory
kodi-pvr-hdhomerun/2017-Nov-23 14:18:45-  Directory
kodi-pvr-hts/2017-Nov-23 14:18:45-  Directory
kodi-pvr-iptvsimple/2017-Nov-23 14:18:45-  Directory
kodi-pvr-mediaportal-tvserver/2017-Nov-23 14:18:46-  Directory
kodi-pvr-mythtv/2017-Nov-23 14:18:46-  Directory
kodi-pvr-nextpvr/2017-Nov-23 14:18:46-  Directory
kodi-pvr-njoy/2017-Nov-23 14:18:46-  Directory
kodi-pvr-vdr-vnsi/2017-Nov-23 14:18:46-  Directory
kodi-pvr-vuplus/2017-Nov-23 14:18:46-  Directory
kodi-pvr-wmc/2017-Nov-23 14:18:46-  Directory
kodi-visualization-spectrum/2017-Nov-23 14:18:46-  Directory
kodiplatform/2017-Nov-23 14:18:49-  Directory
koji/2017-Nov-23 14:18:49-  Directory
kolabadmin/2016-Dec-09 11:33:23-  Directory
kolf/2017-Nov-23 14:18:49-  Directory
kollision/2017-Nov-23 14:18:50-  Directory
kolourpaint/2017-Nov-23 14:18:50-  Directory
kombu/2017-Nov-23 14:18:50-  Directory
komi/2017-Nov-23 14:18:50-  Directory
komparator/2017-Nov-23 14:18:51-  Directory
kompare/2017-Nov-23 14:18:51-  Directory
kon2/2016-Dec-09 11:33:25-  Directory
konclude/2017-Nov-23 14:18:51-  Directory
konfont/2016-Dec-09 11:33:25-  Directory
konquest/2017-Nov-23 14:18:51-  Directory
konsole/2017-Nov-23 14:18:52-  Directory
konsole4/2017-Nov-23 14:18:52-  Directory
kontactinterface/2017-Nov-23 14:18:52-  Directory
konversation/2017-Dec-10 02:23:54-  Directory
konwert/2017-Nov-23 14:18:54-  Directory
kopete/2017-Nov-23 14:18:54-  Directory
kore/2017-Nov-23 14:18:54-  Directory
korundum/2016-Dec-09 11:33:30-  Directory
kosd/2016-Dec-09 11:33:30-  Directory
koules/2017-Nov-23 14:18:55-  Directory
kover/2017-Nov-23 14:18:55-  Directory
kpackage/2017-Nov-23 14:18:55-  Directory
kparts/2017-Nov-23 14:18:55-  Directory
kpartsplugin/2016-Dec-09 11:33:31-  Directory
kpat/2017-Nov-23 14:18:56-  Directory
kpatch/2017-Nov-23 14:18:56-  Directory
kpcli/2017-Nov-23 14:18:56-  Directory
kpeople/2017-Nov-23 14:18:56-  Directory
kphotoalbum/2017-Nov-23 14:18:57-  Directory
kpimtextedit/2017-Nov-23 14:18:58-  Directory
kplayer/2016-Dec-09 11:33:33-  Directory
kplotting/2017-Nov-23 14:18:58-  Directory
kpmcore/2017-Nov-23 14:18:58-  Directory
kppp/2017-Nov-23 14:18:58-  Directory
kprinter4/2017-Nov-23 14:19:00-  Directory
kpty/2017-Nov-23 14:19:00-  Directory
kqtquickcharts/2017-Nov-23 14:19:00-  Directory
kradio4/2017-Nov-23 14:19:00-  Directory
kraft/2017-Nov-23 14:19:00-  Directory
kraken/2017-Nov-23 14:19:00-  Directory
krank/2016-Dec-09 11:33:37-  Directory
kraptor/2017-Nov-23 14:19:01-  Directory
krb5/2017-Dec-10 02:23:54-  Directory
krb5-appl/2016-Dec-09 11:33:39-  Directory
krb5-auth-dialog/2017-Nov-23 14:19:01-  Directory
krb5-strength/2017-Nov-23 14:19:01-  Directory
krb5-sync/2017-Nov-23 14:19:01-  Directory
krdc/2017-Nov-23 14:19:05-  Directory
krecipes/2017-Nov-23 14:19:06-  Directory
kredentials/2017-Nov-23 14:19:08-  Directory
kremotecontrol/2017-Nov-23 14:19:08-  Directory
krename/2017-Nov-23 14:19:09-  Directory
kreversi/2017-Nov-23 14:19:09-  Directory
krfb/2017-Nov-23 14:19:09-  Directory
krita/2017-Nov-23 14:19:10-  Directory
kronometer/2017-Nov-23 14:19:11-  Directory
kross/2017-Nov-23 14:19:12-  Directory
kross-interpreters/2017-Nov-23 14:19:12-  Directory
kruler/2017-Nov-23 14:19:12-  Directory
krunner/2017-Nov-23 14:19:12-  Directory
krusader/2017-Nov-23 14:19:13-  Directory
kryo-serializers/2017-Nov-23 14:19:13-  Directory
ksaneplugin/2017-Nov-23 14:19:14-  Directory
kscd/2017-Nov-23 14:19:14-  Directory
kscope/2017-Nov-23 14:19:14-  Directory
kscreen/2017-Nov-23 14:19:14-  Directory
kscreenlocker/2017-Nov-23 14:19:14-  Directory
kservice/2017-Nov-23 14:19:14-  Directory
ksh/2017-Nov-23 14:19:14-  Directory
kshisen/2017-Nov-23 14:19:14-  Directory
kshutdown/2017-Nov-23 14:19:15-  Directory
ksirk/2017-Nov-23 14:19:15-  Directory
ksmtuned/2017-Nov-23 14:19:15-  Directory
ksnakeduel/2017-Nov-23 14:19:15-  Directory
ksnapshot/2016-Dec-09 11:33:54-  Directory
kspaceduel/2017-Nov-23 14:19:15-  Directory
ksplice/2016-Dec-09 11:33:55-  Directory
ksquares/2017-Nov-23 14:19:16-  Directory
ksshaskpass/2017-Nov-23 14:19:16-  Directory
kst/2017-Nov-23 14:19:16-  Directory
kstars/2017-Nov-23 14:19:18-  Directory
kstart/2017-Nov-23 14:19:18-  Directory
ksudoku/2017-Nov-23 14:19:18-  Directory
ksyntax-highlighting/2017-Nov-23 14:19:19-  Directory
ksysguard/2017-Nov-23 14:19:19-  Directory
ksystemlog/2017-Nov-23 14:19:19-  Directory
kteatime/2017-Nov-23 14:19:19-  Directory
kterm/2017-Nov-23 14:19:19-  Directory
ktexteditor/2017-Nov-23 14:19:20-  Directory
ktextwidgets/2017-Nov-23 14:19:20-  Directory
ktikz/2017-Nov-23 14:19:20-  Directory
ktimer/2017-Nov-23 14:19:20-  Directory
ktnef/2017-Nov-23 14:19:20-  Directory
ktorrent/2017-Nov-23 14:19:20-  Directory
ktouch/2017-Nov-23 14:19:21-  Directory
ktp-accounts-kcm/2016-Dec-09 11:34:06-  Directory
ktp-approver/2017-Nov-23 14:19:21-  Directory
ktp-auth-handler/2017-Nov-23 14:19:21-  Directory
ktp-call-ui/2016-Dec-09 11:34:08-  Directory
ktp-common-internals/2017-Nov-23 14:19:22-  Directory
ktp-contact-list/2017-Nov-23 14:19:22-  Directory
ktp-contact-runner/2017-Nov-23 14:19:23-  Directory
ktp-desktop-applets/2017-Nov-23 14:19:23-  Directory
ktp-filetransfer-handler/2017-Nov-23 14:19:23-  Directory
ktp-kded-integration-module/2017-Nov-23 14:19:23-  Directory
ktp-presence-applet/2016-Dec-09 11:34:11-  Directory
ktp-send-file/2017-Nov-23 14:19:23-  Directory
ktp-text-ui/2016-Dec-09 11:34:12-  Directory
ktuberling/2017-Nov-23 14:19:24-  Directory
kturtle/2017-Nov-23 14:19:24-  Directory
ktux/2016-Dec-09 11:34:13-  Directory
kubrick/2017-Nov-23 14:19:24-  Directory
kumofs/2016-Dec-09 11:34:13-  Directory
kunitconversion/2017-Nov-23 14:19:24-  Directory
kunststoff/2016-Dec-09 11:34:13-  Directory
kup/2017-Nov-23 14:19:25-  Directory
kupfer/2017-Nov-23 14:19:25-  Directory
kuser/2017-Nov-23 14:19:25-  Directory
kuvert/2017-Nov-23 14:19:25-  Directory
kvirc/2017-Nov-23 14:19:25-  Directory
kvkbd/2017-Nov-23 14:19:26-  Directory
kvmtool/2017-Nov-23 14:19:26-  Directory
kvpm/2017-Nov-23 14:19:26-  Directory
kvpnc/2017-Nov-23 14:19:26-  Directory
kwalify/2017-Nov-23 14:19:26-  Directory
kwallet/2016-Dec-09 11:34:25-  Directory
kwallet-kf5/2017-Nov-23 14:19:27-  Directory
kwallet-pam/2017-Nov-23 14:19:27-  Directory
kwalletcli/2017-Nov-23 14:19:27-  Directory
kwalletmanager/2017-Nov-23 14:19:27-  Directory
kwave/2017-Nov-23 14:19:27-  Directory
kwayland/2017-Nov-23 14:19:28-  Directory
kwayland-integration/2017-Nov-23 14:19:28-  Directory
kwidgetsaddons/2017-Nov-23 14:19:28-  Directory
kwin/2017-Nov-23 14:19:29-  Directory
kwin-style-crystal/2016-Dec-09 11:34:27-  Directory
kwin-style-dekorator/2016-Dec-09 11:34:27-  Directory
kwindowsystem/2017-Nov-23 14:19:30-  Directory
kwordquiz/2017-Nov-23 14:19:30-  Directory
kwrited/2017-Nov-23 14:19:30-  Directory
kwstyle/2017-Nov-23 14:19:30-  Directory
kwwidgets/2016-Dec-09 11:34:29-  Directory
kxd/2017-Nov-23 14:19:30-  Directory
kxl/2017-Nov-23 14:19:31-  Directory
kxml2/2016-Dec-09 11:34:29-  Directory
kxmlgui/2017-Nov-23 14:19:31-  Directory
kxmlrpcclient/2017-Nov-23 14:19:31-  Directory
kxstitch/2017-Nov-23 14:19:31-  Directory
kyotocabinet/2017-Nov-23 14:19:32-  Directory
kyototycoon/2016-Dec-09 11:34:32-  Directory
kytea/2016-Dec-09 11:34:32-  Directory
Depots fournis par Kogitae.fr -> Infogérance de serveur Linux / Monitoring / Repartition de charge / Gestion DNS